sensor_id;sensor_type;location;lat;lon;timestamp;P1;durP1;ratioP1;P2;durP2;ratioP2
79518;SDS011;68968;60.034;30.654;2023-04-23T10:21:00;21.25;;;5.18;;
79518;SDS011;68968;60.034;30.654;2023-04-23T10:23:31;12.25;;;4.50;;
79518;SDS011;68968;60.034;30.654;2023-04-23T10:26:17;9.35;;;4.30;;
79518;SDS011;68968;60.034;30.654;2023-04-23T10:28:47;33.13;;;5.68;;
79518;SDS011;68968;60.034;30.654;2023-04-23T10:34:03;17.23;;;4.65;;
79518;SDS011;68968;60.034;30.654;2023-04-23T10:36:38;10.70;;;4.03;;
79518;SDS011;68968;60.034;30.654;2023-04-23T10:39:22;8.88;;;4.25;;
79518;SDS011;68968;60.034;30.654;2023-04-23T10:41:58;11.52;;;4.13;;
79518;SDS011;68968;60.034;30.654;2023-04-23T10:44:37;7.00;;;3.70;;
79518;SDS011;68968;60.034;30.654;2023-04-23T10:47:10;6.97;;;3.90;;
79518;SDS011;68968;60.034;30.654;2023-04-23T10:52:22;9.18;;;3.80;;
79518;SDS011;68968;60.034;30.654;2023-04-23T10:55:14;9.18;;;3.95;;
79518;SDS011;68968;60.034;30.654;2023-04-23T10:58:06;10.60;;;3.90;;
79518;SDS011;68968;60.034;30.654;2023-04-23T11:03:39;9.70;;;3.38;;
79518;SDS011;68968;60.034;30.654;2023-04-23T11:06:13;9.63;;;3.75;;
79518;SDS011;68968;60.034;30.654;2023-04-23T11:09:13;15.20;;;5.00;;
79518;SDS011;68968;60.034;30.654;2023-04-23T11:12:14;138.00;;;34.05;;
79518;SDS011;68968;60.034;30.654;2023-04-23T11:14:57;71.57;;;18.52;;
79518;SDS011;68968;60.034;30.654;2023-04-23T11:20:18;53.90;;;14.48;;
79518;SDS011;68968;60.034;30.654;2023-04-23T11:22:46;52.70;;;13.05;;
79518;SDS011;68968;60.034;30.654;2023-04-23T11:25:17;49.40;;;12.10;;
79518;SDS011;68968;60.034;30.654;2023-04-23T11:28:03;44.35;;;12.85;;
79518;SDS011;68968;60.034;30.654;2023-04-23T11:30:31;51.25;;;12.55;;
79518;SDS011;68968;60.034;30.654;2023-04-23T11:33:15;32.28;;;12.45;;
79518;SDS011;68968;60.034;30.654;2023-04-23T11:36:01;37.97;;;12.25;;
79518;SDS011;68968;60.034;30.654;2023-04-23T11:38:30;33.60;;;12.77;;
79518;SDS011;68968;60.034;30.654;2023-04-23T11:46:32;39.90;;;11.05;;
79518;SDS011;68968;60.034;30.654;2023-04-23T11:49:17;32.67;;;10.60;;
79518;SDS011;68968;60.034;30.654;2023-04-23T11:51:46;29.13;;;10.23;;
79518;SDS011;68968;60.034;30.654;2023-04-23T11:57:00;26.40;;;9.52;;
79518;SDS011;68968;60.034;30.654;2023-04-23T11:59:27;24.42;;;9.27;;
79518;SDS011;68968;60.034;30.654;2023-04-23T12:01:56;29.23;;;8.93;;
79518;SDS011;68968;60.034;30.654;2023-04-23T12:04:24;24.73;;;8.60;;
79518;SDS011;68968;60.034;30.654;2023-04-23T12:06:54;24.40;;;8.38;;
79518;SDS011;68968;60.034;30.654;2023-04-23T12:09:24;22.33;;;8.82;;
79518;SDS011;68968;60.034;30.654;2023-04-23T12:11:51;19.38;;;7.60;;
79518;SDS011;68968;60.034;30.654;2023-04-23T12:14:18;17.17;;;7.45;;
79518;SDS011;68968;60.034;30.654;2023-04-23T12:16:48;20.88;;;7.45;;
79518;SDS011;68968;60.034;30.654;2023-04-23T12:19:20;23.13;;;7.93;;
79518;SDS011;68968;60.034;30.654;2023-04-23T12:22:08;18.13;;;6.63;;
79518;SDS011;68968;60.034;30.654;2023-04-23T12:24:48;14.73;;;6.63;;
79518;SDS011;68968;60.034;30.654;2023-04-23T12:27:37;18.53;;;7.03;;
79518;SDS011;68968;60.034;30.654;2023-04-23T12:30:07;20.15;;;7.32;;
79518;SDS011;68968;60.034;30.654;2023-04-23T12:32:51;14.18;;;6.28;;
79518;SDS011;68968;60.034;30.654;2023-04-23T12:38:04;14.05;;;6.10;;
79518;SDS011;68968;60.034;30.654;2023-04-23T12:40:49;11.40;;;5.20;;
79518;SDS011;68968;60.034;30.654;2023-04-23T12:43:15;13.70;;;5.70;;
79518;SDS011;68968;60.034;30.654;2023-04-23T12:45:41;13.77;;;5.30;;
79518;SDS011;68968;60.034;30.654;2023-04-23T12:48:06;14.43;;;5.45;;
79518;SDS011;68968;60.034;30.654;2023-04-23T12:50:32;13.55;;;5.25;;
79518;SDS011;68968;60.034;30.654;2023-04-23T12:55:42;72.55;;;13.85;;
79518;SDS011;68968;60.034;30.654;2023-04-23T12:58:09;37.67;;;10.10;;
79518;SDS011;68968;60.034;30.654;2023-04-23T13:00:35;41.47;;;8.85;;
79518;SDS011;68968;60.034;30.654;2023-04-23T13:03:01;33.53;;;9.43;;
79518;SDS011;68968;60.034;30.654;2023-04-23T13:08:32;37.13;;;8.43;;
79518;SDS011;68968;60.034;30.654;2023-04-23T14:16:54;8.57;;;4.30;;
79518;SDS011;68968;60.034;30.654;2023-04-23T14:22:09;6.78;;;3.75;;
79518;SDS011;68968;60.034;30.654;2023-04-23T14:24:44;11.00;;;4.28;;
79518;SDS011;68968;60.034;30.654;2023-04-23T14:27:49;8.98;;;4.72;;
79518;SDS011;68968;60.034;30.654;2023-04-23T14:30:19;9.93;;;4.88;;
79518;SDS011;68968;60.034;30.654;2023-04-23T14:32:46;26.52;;;6.03;;
79518;SDS011;68968;60.034;30.654;2023-04-23T14:35:12;14.65;;;8.05;;
79518;SDS011;68968;60.034;30.654;2023-04-23T14:37:39;68.80;;;45.17;;
79518;SDS011;68968;60.034;30.654;2023-04-23T14:40:09;101.15;;;57.15;;
79518;SDS011;68968;60.034;30.654;2023-04-23T14:42:38;158.85;;;87.82;;
79518;SDS011;68968;60.034;30.654;2023-04-23T14:45:04;426.90;;;163.63;;
79518;SDS011;68968;60.034;30.654;2023-04-23T14:47:31;405.95;;;232.77;;
79518;SDS011;68968;60.034;30.654;2023-04-23T14:49:57;388.27;;;264.75;;
79518;SDS011;68968;60.034;30.654;2023-04-23T14:52:25;270.63;;;185.00;;
79518;SDS011;68968;60.034;30.654;2023-04-23T14:54:50;185.55;;;119.38;;
79518;SDS011;68968;60.034;30.654;2023-04-23T14:57:20;83.78;;;55.00;;
79518;SDS011;68968;60.034;30.654;2023-04-23T14:59:46;70.47;;;42.05;;
79518;SDS011;68968;60.034;30.654;2023-04-23T15:02:12;57.28;;;34.25;;
79518;SDS011;68968;60.034;30.654;2023-04-23T15:04:38;38.95;;;21.95;;
79518;SDS011;68968;60.034;30.654;2023-04-23T15:07:05;35.00;;;23.85;;
79518;SDS011;68968;60.034;30.654;2023-04-23T15:09:31;43.42;;;24.92;;
79518;SDS011;68968;60.034;30.654;2023-04-23T15:11:57;33.67;;;22.55;;
79518;SDS011;68968;60.034;30.654;2023-04-23T15:14:29;42.88;;;28.85;;
79518;SDS011;68968;60.034;30.654;2023-04-23T15:16:57;60.72;;;36.42;;
79518;SDS011;68968;60.034;30.654;2023-04-23T15:19:23;42.67;;;26.85;;
79518;SDS011;68968;60.034;30.654;2023-04-23T15:21:49;37.30;;;21.58;;
79518;SDS011;68968;60.034;30.654;2023-04-23T15:24:15;36.38;;;23.98;;
79518;SDS011;68968;60.034;30.654;2023-04-23T15:26:41;37.75;;;24.38;;
79518;SDS011;68968;60.034;30.654;2023-04-23T15:29:07;41.38;;;28.40;;
79518;SDS011;68968;60.034;30.654;2023-04-23T15:31:35;31.80;;;20.70;;
79518;SDS011;68968;60.034;30.654;2023-04-23T15:34:01;33.38;;;20.27;;
79518;SDS011;68968;60.034;30.654;2023-04-23T15:36:27;26.20;;;15.70;;
79518;SDS011;68968;60.034;30.654;2023-04-23T15:38:53;26.48;;;12.85;;
79518;SDS011;68968;60.034;30.654;2023-04-23T15:41:18;24.98;;;12.65;;
79518;SDS011;68968;60.034;30.654;2023-04-23T15:43:44;18.58;;;10.27;;
79518;SDS011;68968;60.034;30.654;2023-04-23T15:46:11;15.02;;;8.95;;
79518;SDS011;68968;60.034;30.654;2023-04-23T15:48:37;16.73;;;8.35;;
79518;SDS011;68968;60.034;30.654;2023-04-23T15:51:02;14.60;;;7.97;;
79518;SDS011;68968;60.034;30.654;2023-04-23T15:53:28;13.18;;;6.75;;
79518;SDS011;68968;60.034;30.654;2023-04-23T15:55:54;14.13;;;7.25;;
79518;SDS011;68968;60.034;30.654;2023-04-23T15:58:20;10.65;;;6.60;;
79518;SDS011;68968;60.034;30.654;2023-04-23T16:00:45;15.20;;;8.15;;
79518;SDS011;68968;60.034;30.654;2023-04-23T16:03:12;13.27;;;7.07;;
79518;SDS011;68968;60.034;30.654;2023-04-23T16:05:39;13.68;;;7.43;;
79518;SDS011;68968;60.034;30.654;2023-04-23T16:08:06;11.63;;;6.68;;
79518;SDS011;68968;60.034;30.654;2023-04-23T16:10:32;20.00;;;6.35;;
79518;SDS011;68968;60.034;30.654;2023-04-23T16:12:59;15.70;;;6.18;;
